sensor_id;sensor_type;location;lat;lon;timestamp;temperature;humidity
24410;DHT22;12543;53.364;-1.504;2022-10-23T00:00:16;14.30;99.90
24410;DHT22;12543;53.364;-1.504;2022-10-23T00:02:44;14.30;99.90
24410;DHT22;12543;53.364;-1.504;2022-10-23T00:05:12;14.30;99.90
24410;DHT22;12543;53.364;-1.504;2022-10-23T00:07:38;14.30;99.90
24410;DHT22;12543;53.364;-1.504;2022-10-23T00:10:05;14.30;99.90
24410;DHT22;12543;53.364;-1.504;2022-10-23T00:12:32;14.30;99.90
24410;DHT22;12543;53.364;-1.504;2022-10-23T00:14:59;14.30;99.90
24410;DHT22;12543;53.364;-1.504;2022-10-23T00:17:26;14.30;99.90
24410;DHT22;12543;53.364;-1.504;2022-10-23T00:19:53;14.40;99.90
24410;DHT22;12543;53.364;-1.504;2022-10-23T00:22:20;14.30;99.90
24410;DHT22;12543;53.364;-1.504;2022-10-23T00:24:47;14.40;99.90
24410;DHT22;12543;53.364;-1.504;2022-10-23T00:27:13;14.40;99.90
24410;DHT22;12543;53.364;-1.504;2022-10-23T00:29:41;14.40;99.90
24410;DHT22;12543;53.364;-1.504;2022-10-23T00:32:09;14.40;99.90
24410;DHT22;12543;53.364;-1.504;2022-10-23T00:34:36;14.40;99.90
24410;DHT22;12543;53.364;-1.504;2022-10-23T00:37:03;14.40;99.90
24410;DHT22;12543;53.364;-1.504;2022-10-23T00:39:30;14.40;99.90
24410;DHT22;12543;53.364;-1.504;2022-10-23T00:41:57;14.40;99.90
24410;DHT22;12543;53.364;-1.504;2022-10-23T00:46:50;14.40;99.90
24410;DHT22;12543;53.364;-1.504;2022-10-23T00:49:17;14.40;99.90
24410;DHT22;12543;53.364;-1.504;2022-10-23T00:51:46;14.40;99.90
24410;DHT22;12543;53.364;-1.504;2022-10-23T00:54:15;14.40;99.90
24410;DHT22;12543;53.364;-1.504;2022-10-23T00:56:53;14.40;99.90
24410;DHT22;12543;53.364;-1.504;2022-10-23T00:59:22;14.40;99.90
24410;DHT22;12543;53.364;-1.504;2022-10-23T01:01:49;14.40;99.90
24410;DHT22;12543;53.364;-1.504;2022-10-23T01:04:16;14.40;99.90
24410;DHT22;12543;53.364;-1.504;2022-10-23T01:09:28;14.40;99.90
24410;DHT22;12543;53.364;-1.504;2022-10-23T01:11:59;14.40;99.90
24410;DHT22;12543;53.364;-1.504;2022-10-23T01:17:15;14.40;99.90
24410;DHT22;12543;53.364;-1.504;2022-10-23T01:20:00;14.40;99.90
24410;DHT22;12543;53.364;-1.504;2022-10-23T01:25:10;14.40;99.90
24410;DHT22;12543;53.364;-1.504;2022-10-23T01:27:46;14.50;99.90
24410;DHT22;12543;53.364;-1.504;2022-10-23T01:30:16;14.50;99.90
24410;DHT22;12543;53.364;-1.504;2022-10-23T01:32:48;14.50;99.90
24410;DHT22;12543;53.364;-1.504;2022-10-23T01:40:28;14.50;99.90
24410;DHT22;12543;53.364;-1.504;2022-10-23T01:42:58;14.50;99.90
24410;DHT22;12543;53.364;-1.504;2022-10-23T01:45:31;14.50;99.90
24410;DHT22;12543;53.364;-1.504;2022-10-23T01:47:59;14.50;99.90
24410;DHT22;12543;53.364;-1.504;2022-10-23T01:50:27;14.50;99.90
24410;DHT22;12543;53.364;-1.504;2022-10-23T01:53:00;14.50;99.90
24410;DHT22;12543;53.364;-1.504;2022-10-23T01:55:27;14.50;99.90
24410;DHT22;12543;53.364;-1.504;2022-10-23T01:57:57;14.60;99.90
24410;DHT22;12543;53.364;-1.504;2022-10-23T02:00:34;14.60;99.90
24410;DHT22;12543;53.364;-1.504;2022-10-23T02:03:01;14.60;99.90
24410;DHT22;12543;53.364;-1.504;2022-10-23T02:05:32;14.50;99.90
24410;DHT22;12543;53.364;-1.504;2022-10-23T02:08:01;14.60;99.90
24410;DHT22;12543;53.364;-1.504;2022-10-23T02:10:34;14.50;99.90
24410;DHT22;12543;53.364;-1.504;2022-10-23T02:13:08;14.60;99.90
24410;DHT22;12543;53.364;-1.504;2022-10-23T02:15:37;14.60;99.90
24410;DHT22;12543;53.364;-1.504;2022-10-23T02:21:04;14.50;99.90
24410;DHT22;12543;53.364;-1.504;2022-10-23T02:26:16;14.60;99.90
24410;DHT22;12543;53.364;-1.504;2022-10-23T02:29:33;14.60;99.90
24410;DHT22;12543;53.364;-1.504;2022-10-23T02:31:35;14.50;99.90
24410;DHT22;12543;53.364;-1.504;2022-10-23T02:34:02;14.50;99.90
24410;DHT22;12543;53.364;-1.504;2022-10-23T02:36:29;14.50;99.90
24410;DHT22;12543;53.364;-1.504;2022-10-23T02:38:56;14.50;99.90
24410;DHT22;12543;53.364;-1.504;2022-10-23T02:44:01;14.50;99.90
24410;DHT22;12543;53.364;-1.504;2022-10-23T02:46:33;14.50;99.90
24410;DHT22;12543;53.364;-1.504;2022-10-23T02:49:05;14.50;99.90
24410;DHT22;12543;53.364;-1.504;2022-10-23T02:51:43;14.50;99.90
24410;DHT22;12543;53.364;-1.504;2022-10-23T02:56:54;14.60;99.90
24410;DHT22;12543;53.364;-1.504;2022-10-23T03:02:05;14.50;99.90
24410;DHT22;12543;53.364;-1.504;2022-10-23T03:04:36;14.60;99.90
24410;DHT22;12543;53.364;-1.504;2022-10-23T03:07:04;14.50;99.90
24410;DHT22;12543;53.364;-1.504;2022-10-23T03:09:31;14.50;99.90
24410;DHT22;12543;53.364;-1.504;2022-10-23T03:11:58;14.60;99.90
24410;DHT22;12543;53.364;-1.504;2022-10-23T03:14:25;14.60;99.90
24410;DHT22;12543;53.364;-1.504;2022-10-23T03:16:51;14.60;99.90
24410;DHT22;12543;53.364;-1.504;2022-10-23T03:19:18;14.60;99.90
24410;DHT22;12543;53.364;-1.504;2022-10-23T03:21:45;14.60;99.90
24410;DHT22;12543;53.364;-1.504;2022-10-23T03:24:12;14.60;99.90
24410;DHT22;12543;53.364;-1.504;2022-10-23T03:26:41;14.60;99.90
24410;DHT22;12543;53.364;-1.504;2022-10-23T03:29:09;14.60;99.90
24410;DHT22;12543;53.364;-1.504;2022-10-23T03:31:41;14.60;99.90
24410;DHT22;12543;53.364;-1.504;2022-10-23T03:34:09;14.60;99.90
24410;DHT22;12543;53.364;-1.504;2022-10-23T03:36:39;14.60;99.90
24410;DHT22;12543;53.364;-1.504;2022-10-23T03:39:07;14.50;99.90
24410;DHT22;12543;53.364;-1.504;2022-10-23T03:41:34;14.60;99.90
24410;DHT22;12543;53.364;-1.504;2022-10-23T03:44:01;14.60;99.90
24410;DHT22;12543;53.364;-1.504;2022-10-23T03:46:33;14.50;99.90
24410;DHT22;12543;53.364;-1.504;2022-10-23T03:49:00;14.50;99.90
24410;DHT22;12543;53.364;-1.504;2022-10-23T03:51:27;14.50;99.90
24410;DHT22;12543;53.364;-1.504;2022-10-23T03:53:56;14.40;99.90
24410;DHT22;12543;53.364;-1.504;2022-10-23T03:56:23;14.40;99.90
24410;DHT22;12543;53.364;-1.504;2022-10-23T03:58:50;14.40;99.90
24410;DHT22;12543;53.364;-1.504;2022-10-23T04:01:17;14.40;99.90
24410;DHT22;12543;53.364;-1.504;2022-10-23T04:03:44;14.40;99.90
24410;DHT22;12543;53.364;-1.504;2022-10-23T04:06:14;14.40;99.90
24410;DHT22;12543;53.364;-1.504;2022-10-23T04:08:43;14.40;99.90
24410;DHT22;12543;53.364;-1.504;2022-10-23T04:11:14;14.40;99.90
24410;DHT22;12543;53.364;-1.504;2022-10-23T04:13:44;14.40;99.90
24410;DHT22;12543;53.364;-1.504;2022-10-23T04:16:11;14.40;99.90
24410;DHT22;12543;53.364;-1.504;2022-10-23T04:18:41;14.40;99.90
24410;DHT22;12543;53.364;-1.504;2022-10-23T04:21:08;14.40;99.90
24410;DHT22;12543;53.364;-1.504;2022-10-23T04:23:35;14.40;99.90
24410;DHT22;12543;53.364;-1.504;2022-10-23T04:26:04;14.30;99.90
24410;DHT22;12543;53.364;-1.504;2022-10-23T04:28:31;14.40;99.90
24410;DHT22;12543;53.364;-1.504;2022-10-23T04:30:58;14.40;99.90
24410;DHT22;12543;53.364;-1.504;2022-10-23T04:33:25;14.40;99.90
24410;DHT22;12543;53.364;-1.504;2022-10-23T04:35:52;14.40;99.90
24410;DHT22;12543;53.364;-1.504;2022-10-23T04:38:19;14.40;99.90
24410;DHT22;12543;53.364;-1.504;2022-10-23T04:40:46;14.40;99.90
24410;DHT22;12543;53.364;-1.504;2022-10-23T04:43:18;14.40;99.90
24410;DHT22;12543;53.364;-1.504;2022-10-23T04:45:45;14.40;99.90
24410;DHT22;12543;53.364;-1.504;2022-10-23T04:48:13;14.40;99.90
24410;DHT22;12543;53.364;-1.504;2022-10-23T04:51:06;14.40;99.90
24410;DHT22;12543;53.364;-1.504;2022-10-23T04:53:51;14.40;99.90
24410;DHT22;12543;53.364;-1.504;2022-10-23T04:56:47;14.40;99.90
24410;DHT22;12543;53.364;-1.504;2022-10-23T04:59:17;14.40;99.90
24410;DHT22;12543;53.364;-1.504;2022-10-23T05:01:44;14.40;99.90
24410;DHT22;12543;53.364;-1.504;2022-10-23T05:04:12;14.40;99.90
24410;DHT22;12543;53.364;-1.504;2022-10-23T05:07:02;14.40;99.90
24410;DHT22;12543;53.364;-1.504;2022-10-23T05:09:44;14.40;99.90
24410;DHT22;12543;53.364;-1.504;2022-10-23T05:12:40;14.40;99.90
24410;DHT22;12543;53.364;-1.504;2022-10-23T05:15:07;14.40;99.90
24410;DHT22;12543;53.364;-1.504;2022-10-23T05:17:34;14.40;99.90
24410;DHT22;12543;53.364;-1.504;2022-10-23T05:20:04;14.40;99.90
24410;DHT22;12543;53.364;-1.504;2022-10-23T05:22:33;14.40;99.90
24410;DHT22;12543;53.364;-1.504;2022-10-23T05:25:05;14.40;99.90
24410;DHT22;12543;53.364;-1.504;2022-10-23T05:27:33;14.40;99.90
24410;DHT22;12543;53.364;-1.504;2022-10-23T05:30:00;14.40;99.90
24410;DHT22;12543;53.364;-1.504;2022-10-23T05:32:33;14.50;99.90
24410;DHT22;12543;53.364;-1.504;2022-10-23T05:35:02;14.40;99.90
24410;DHT22;12543;53.364;-1.504;2022-10-23T05:37:36;14.40;99.90
24410;DHT22;12543;53.364;-1.504;2022-10-23T05:40:07;14.50;99.90
24410;DHT22;12543;53.364;-1.504;2022-10-23T05:42:39;14.50;99.90
24410;DHT22;12543;53.364;-1.504;2022-10-23T05:45:09;14.40;99.90
24410;DHT22;12543;53.364;-1.504;2022-10-23T05:47:54;14.50;99.90
24410;DHT22;12543;53.364;-1.504;2022-10-23T05:50:54;14.50;99.90
24410;DHT22;12543;53.364;-1.504;2022-10-23T05:53:31;14.40;99.90
24410;DHT22;12543;53.364;-1.504;2022-10-23T05:56:18;14.40;99.90
24410;DHT22;12543;53.364;-1.504;2022-10-23T05:58:54;14.40;99.90
24410;DHT22;12543;53.364;-1.504;2022-10-23T06:01:45;14.40;99.90
24410;DHT22;12543;53.364;-1.504;2022-10-23T06:04:16;14.40;99.90
24410;DHT22;12543;53.364;-1.504;2022-10-23T06:07:16;14.40;99.90
24410;DHT22;12543;53.364;-1.504;2022-10-23T06:09:44;14.40;99.90
24410;DHT22;12543;53.364;-1.504;2022-10-23T06:12:11;14.40;99.90
24410;DHT22;12543;53.364;-1.504;2022-10-23T06:14:43;14.40;99.90
24410;DHT22;12543;53.364;-1.504;2022-10-23T06:17:09;14.40;99.90
24410;DHT22;12543;53.364;-1.504;2022-10-23T06:19:42;14.40;99.90
24410;DHT22;12543;53.364;-1.504;2022-10-23T06:22:09;14.40;99.90
24410;DHT22;12543;53.364;-1.504;2022-10-23T06:24:59;14.30;99.90
24410;DHT22;12543;53.364;-1.504;2022-10-23T06:27:26;14.30;99.90
24410;DHT22;12543;53.364;-1.504;2022-10-23T06:29:54;14.30;99.90
24410;DHT22;12543;53.364;-1.504;2022-10-23T06:32:21;14.40;99.90
24410;DHT22;12543;53.364;-1.504;2022-10-23T06:35:01;14.30;99.90
24410;DHT22;12543;53.364;-1.504;2022-10-23T06:37:27;14.30;99.90
24410;DHT22;12543;53.364;-1.504;2022-10-23T06:40:08;14.30;99.90
24410;DHT22;12543;53.364;-1.504;2022-10-23T06:42:55;14.30;99.90
24410;DHT22;12543;53.364;-1.504;2022-10-23T06:45:28;14.20;99.90
24410;DHT22;12543;53.364;-1.504;2022-10-23T06:48:19;14.20;99.90
24410;DHT22;12543;53.364;-1.504;2022-10-23T06:50:58;14.20;99.90
24410;DHT22;12543;53.364;-1.504;2022-10-23T06:53:34;14.20;99.90
24410;DHT22;12543;53.364;-1.504;2022-10-23T06:56:14;14.20;99.90
24410;DHT22;12543;53.364;-1.504;2022-10-23T06:58:41;14.20;99.90
24410;DHT22;12543;53.364;-1.504;2022-10-23T07:01:12;14.20;99.90
24410;DHT22;12543;53.364;-1.504;2022-10-23T07:03:42;14.20;99.90
24410;DHT22;12543;53.364;-1.504;2022-10-23T07:06:10;14.10;99.90
24410;DHT22;12543;53.364;-1.504;2022-10-23T07:08:37;14.20;99.90
24410;DHT22;12543;53.364;-1.504;2022-10-23T07:11:17;14.10;99.90
24410;DHT22;12543;53.364;-1.504;2022-10-23T07:13:47;14.10;99.90
24410;DHT22;12543;53.364;-1.504;2022-10-23T07:16:20;14.10;99.90
24410;DHT22;12543;53.364;-1.504;2022-10-23T07:18:48;14.20;99.90
24410;DHT22;12543;53.364;-1.504;2022-10-23T07:21:21;14.10;99.90
24410;DHT22;12543;53.364;-1.504;2022-10-23T07:23:52;14.10;99.90
24410;DHT22;12543;53.364;-1.504;2022-10-23T07:26:19;14.10;99.90
24410;DHT22;12543;53.364;-1.504;2022-10-23T07:28:47;14.10;99.90
24410;DHT22;12543;53.364;-1.504;2022-10-23T07:31:19;14.10;99.90
24410;DHT22;12543;53.364;-1.504;2022-10-23T07:34:15;14.10;99.90
24410;DHT22;12543;53.364;-1.504;2022-10-23T07:36:44;14.10;99.90
24410;DHT22;12543;53.364;-1.504;2022-10-23T07:39:11;14.10;99.90
24410;DHT22;12543;53.364;-1.504;2022-10-23T07:41:45;14.10;99.90
24410;DHT22;12543;53.364;-1.504;2022-10-23T07:44:12;14.10;99.90
24410;DHT22;12543;53.364;-1.504;2022-10-23T07:46:39;14.10;99.90
24410;DHT22;12543;53.364;-1.504;2022-10-23T07:49:08;14.00;99.90
24410;DHT22;12543;53.364;-1.504;2022-10-23T07:51:36;14.00;99.90
24410;DHT22;12543;53.364;-1.504;2022-10-23T07:54:03;14.00;99.90
24410;DHT22;12543;53.364;-1.504;2022-10-23T07:56:50;14.00;99.90
24410;DHT22;12543;53.364;-1.504;2022-10-23T07:59:36;14.00;99.90
24410;DHT22;12543;53.364;-1.504;2022-10-23T08:02:11;14.00;99.90
24410;DHT22;12543;53.364;-1.504;2022-10-23T08:04:40;14.00;99.90
24410;DHT22;12543;53.364;-1.504;2022-10-23T08:07:19;14.00;99.90
24410;DHT22;12543;53.364;-1.504;2022-10-23T08:09:49;14.00;99.90
24410;DHT22;12543;53.364;-1.504;2022-10-23T08:12:16;13.90;99.90
24410;DHT22;12543;53.364;-1.504;2022-10-23T08:14:43;13.90;99.90
24410;DHT22;12543;53.364;-1.504;2022-10-23T08:17:10;13.90;99.90
24410;DHT22;12543;53.364;-1.504;2022-10-23T08:19:56;13.90;99.90
24410;DHT22;12543;53.364;-1.504;2022-10-23T08:22:27;13.90;99.90
24410;DHT22;12543;53.364;-1.504;2022-10-23T08:24:54;13.90;99.90
24410;DHT22;12543;53.364;-1.504;2022-10-23T08:27:21;13.90;99.90
24410;DHT22;12543;53.364;-1.504;2022-10-23T08:29:48;13.90;99.90
24410;DHT22;12543;53.364;-1.504;2022-10-23T08:32:15;13.90;99.90
24410;DHT22;12543;53.364;-1.504;2022-10-23T08:34:54;13.90;99.90
24410;DHT22;12543;53.364;-1.504;2022-10-23T08:37:23;13.90;99.90
24410;DHT22;12543;53.364;-1.504;2022-10-23T08:39:50;13.90;99.90
24410;DHT22;12543;53.364;-1.504;2022-10-23T08:42:26;13.90;99.90
24410;DHT22;12543;53.364;-1.504;2022-10-23T08:45:06;13.80;99.90
24410;DHT22;12543;53.364;-1.504;2022-10-23T08:47:41;13.90;99.90
24410;DHT22;12543;53.364;-1.504;2022-10-23T08:50:40;13.90;99.90
24410;DHT22;12543;53.364;-1.504;2022-10-23T08:53:13;13.80;99.90
24410;DHT22;12543;53.364;-1.504;2022-10-23T08:55:44;13.90;99.90
24410;DHT22;12543;53.364;-1.504;2022-10-23T08:58:23;13.80;99.90
24410;DHT22;12543;53.364;-1.504;2022-10-23T09:00:51;13.80;99.90
24410;DHT22;12543;53.364;-1.504;2022-10-23T09:03:19;13.80;99.90
24410;DHT22;12543;53.364;-1.504;2022-10-23T11:32:24;13.90;99.90
24410;DHT22;12543;53.364;-1.504;2022-10-23T11:37:27;13.90;99.90
24410;DHT22;12543;53.364;-1.504;2022-10-23T11:56:22;14.00;99.90
24410;DHT22;12543;53.364;-1.504;2022-10-23T11:58:58;14.00;99.90
24410;DHT22;12543;53.364;-1.504;2022-10-23T12:01:33;14.00;99.90
24410;DHT22;12543;53.364;-1.504;2022-10-23T12:04:04;14.00;99.90
24410;DHT22;12543;53.364;-1.504;2022-10-23T12:06:37;14.00;99.90
24410;DHT22;12543;53.364;-1.504;2022-10-23T12:20:15;14.10;99.90
24410;DHT22;12543;53.364;-1.504;2022-10-23T12:39:51;14.20;99.90
24410;DHT22;12543;53.364;-1.504;2022-10-23T12:42:29;14.30;99.90
24410;DHT22;12543;53.364;-1.504;2022-10-23T12:45:00;14.30;99.90
24410;DHT22;12543;53.364;-1.504;2022-10-23T12:47:38;14.40;99.90
24410;DHT22;12543;53.364;-1.504;2022-10-23T12:50:18;14.40;99.90
24410;DHT22;12543;53.364;-1.504;2022-10-23T12:52:54;14.40;99.90
24410;DHT22;12543;53.364;-1.504;2022-10-23T12:55:33;14.50;99.90
24410;DHT22;12543;53.364;-1.504;2022-10-23T12:58:26;14.50;99.90
24410;DHT22;12543;53.364;-1.504;2022-10-23T13:01:00;14.50;99.90
24410;DHT22;12543;53.364;-1.504;2022-10-23T13:03:44;14.50;99.90
24410;DHT22;12543;53.364;-1.504;2022-10-23T13:06:11;14.60;99.90
24410;DHT22;12543;53.364;-1.504;2022-10-23T13:08:44;14.60;99.90
24410;DHT22;12543;53.364;-1.504;2022-10-23T13:11:34;14.60;99.90
24410;DHT22;12543;53.364;-1.504;2022-10-23T13:14:11;14.60;99.90
24410;DHT22;12543;53.364;-1.504;2022-10-23T13:16:41;14.60;99.90
24410;DHT22;12543;53.364;-1.504;2022-10-23T13:19:22;14.60;99.90
24410;DHT22;12543;53.364;-1.504;2022-10-23T13:21:50;14.70;99.90
24410;DHT22;12543;53.364;-1.504;2022-10-23T13:24:29;14.60;99.90
24410;DHT22;12543;53.364;-1.504;2022-10-23T13:27:23;14.70;99.90
24410;DHT22;12543;53.364;-1.504;2022-10-23T13:29:54;14.70;99.90
24410;DHT22;12543;53.364;-1.504;2022-10-23T13:32:28;14.70;99.90
24410;DHT22;12543;53.364;-1.504;2022-10-23T13:34:56;14.60;99.90
24410;DHT22;12543;53.364;-1.504;2022-10-23T13:37:47;14.70;99.90
24410;DHT22;12543;53.364;-1.504;2022-10-23T13:40:19;14.70;99.90
24410;DHT22;12543;53.364;-1.504;2022-10-23T13:42:49;14.70;99.90
24410;DHT22;12543;53.364;-1.504;2022-10-23T13:45:23;14.70;99.90
24410;DHT22;12543;53.364;-1.504;2022-10-23T13:47:51;14.70;99.90
24410;DHT22;12543;53.364;-1.504;2022-10-23T13:50:18;14.70;99.90
24410;DHT22;12543;53.364;-1.504;2022-10-23T13:52:46;14.60;99.90
24410;DHT22;12543;53.364;-1.504;2022-10-23T13:55:23;14.70;99.90
24410;DHT22;12543;53.364;-1.504;2022-10-23T13:57:53;14.60;99.90
24410;DHT22;12543;53.364;-1.504;2022-10-23T14:00:21;14.70;99.90
24410;DHT22;12543;53.364;-1.504;2022-10-23T14:02:48;14.70;99.90
24410;DHT22;12543;53.364;-1.504;2022-10-23T14:05:22;14.70;99.90
24410;DHT22;12543;53.364;-1.504;2022-10-23T14:07:49;14.70;99.90
24410;DHT22;12543;53.364;-1.504;2022-10-23T14:10:18;14.80;99.90
24410;DHT22;12543;53.364;-1.504;2022-10-23T14:12:56;14.70;99.90
24410;DHT22;12543;53.364;-1.504;2022-10-23T14:15:24;14.70;99.90
24410;DHT22;12543;53.364;-1.504;2022-10-23T14:17:54;14.70;99.90
24410;DHT22;12543;53.364;-1.504;2022-10-23T14:20:29;14.70;99.90
24410;DHT22;12543;53.364;-1.504;2022-10-23T14:22:56;14.70;99.90
24410;DHT22;12543;53.364;-1.504;2022-10-23T14:25:29;14.70;99.90
24410;DHT22;12543;53.364;-1.504;2022-10-23T14:28:02;14.70;99.90
24410;DHT22;12543;53.364;-1.504;2022-10-23T14:30:34;14.70;99.90
24410;DHT22;12543;53.364;-1.504;2022-10-23T14:33:02;14.70;99.90
24410;DHT22;12543;53.364;-1.504;2022-10-23T14:35:32;14.70;99.90
24410;DHT22;12543;53.364;-1.504;2022-10-23T14:38:00;14.70;99.90
24410;DHT22;12543;53.364;-1.504;2022-10-23T14:40:27;14.70;99.90
24410;DHT22;12543;53.364;-1.504;2022-10-23T14:42:58;14.70;99.90
24410;DHT22;12543;53.364;-1.504;2022-10-23T14:45:25;14.70;99.90
24410;DHT22;12543;53.364;-1.504;2022-10-23T14:47:56;14.70;99.90
24410;DHT22;12543;53.364;-1.504;2022-10-23T14:50:23;14.70;99.90
24410;DHT22;12543;53.364;-1.504;2022-10-23T14:52:50;14.70;99.90
24410;DHT22;12543;53.364;-1.504;2022-10-23T14:55:24;14.80;99.90
24410;DHT22;12543;53.364;-1.504;2022-10-23T14:57:58;14.80;99.90
24410;DHT22;12543;53.364;-1.504;2022-10-23T15:00:25;14.80;99.90
24410;DHT22;12543;53.364;-1.504;2022-10-23T15:02:52;14.80;99.90
24410;DHT22;12543;53.364;-1.504;2022-10-23T15:05:22;14.80;99.90
24410;DHT22;12543;53.364;-1.504;2022-10-23T15:07:49;14.80;99.90
24410;DHT22;12543;53.364;-1.504;2022-10-23T15:10:16;14.90;99.90
24410;DHT22;12543;53.364;-1.504;2022-10-23T15:12:45;14.90;99.90
24410;DHT22;12543;53.364;-1.504;2022-10-23T15:15:12;14.90;99.90
24410;DHT22;12543;53.364;-1.504;2022-10-23T15:17:41;14.90;99.90
24410;DHT22;12543;53.364;-1.504;2022-10-23T15:20:08;14.90;99.90
24410;DHT22;12543;53.364;-1.504;2022-10-23T15:22:35;14.90;99.90
24410;DHT22;12543;53.364;-1.504;2022-10-23T15:25:02;14.90;99.90
24410;DHT22;12543;53.364;-1.504;2022-10-23T15:27:29;15.00;99.90
24410;DHT22;12543;53.364;-1.504;2022-10-23T15:29:56;15.00;99.90
24410;DHT22;12543;53.364;-1.504;2022-10-23T15:32:25;15.00;99.90
24410;DHT22;12543;53.364;-1.504;2022-10-23T15:34:52;15.00;99.90
24410;DHT22;12543;53.364;-1.504;2022-10-23T15:37:20;15.00;99.90
24410;DHT22;12543;53.364;-1.504;2022-10-23T15:39:47;15.00;99.90
24410;DHT22;12543;53.364;-1.504;2022-10-23T15:42:14;15.00;99.90
24410;DHT22;12543;53.364;-1.504;2022-10-23T15:44:44;15.00;99.90
24410;DHT22;12543;53.364;-1.504;2022-10-23T15:47:14;15.00;99.90
24410;DHT22;12543;53.364;-1.504;2022-10-23T15:49:44;15.00;99.90
24410;DHT22;12543;53.364;-1.504;2022-10-23T15:52:17;15.00;99.90
24410;DHT22;12543;53.364;-1.504;2022-10-23T15:54:46;15.00;99.90
24410;DHT22;12543;53.364;-1.504;2022-10-23T15:57:15;15.00;99.90
24410;DHT22;12543;53.364;-1.504;2022-10-23T15:59:45;15.00;99.90
24410;DHT22;12543;53.364;-1.504;2022-10-23T16:02:13;15.00;99.90
24410;DHT22;12543;53.364;-1.504;2022-10-23T16:04:41;14.90;99.90
24410;DHT22;12543;53.364;-1.504;2022-10-23T16:07:08;14.90;99.90
24410;DHT22;12543;53.364;-1.504;2022-10-23T16:09:35;14.90;99.90
24410;DHT22;12543;53.364;-1.504;2022-10-23T16:12:03;14.90;99.90
24410;DHT22;12543;53.364;-1.504;2022-10-23T16:14:31;14.90;99.90
24410;DHT22;12543;53.364;-1.504;2022-10-23T16:17:01;14.90;99.90
24410;DHT22;12543;53.364;-1.504;2022-10-23T16:19:28;14.90;99.90
24410;DHT22;12543;53.364;-1.504;2022-10-23T16:21:55;14.80;99.90
24410;DHT22;12543;53.364;-1.504;2022-10-23T16:24:21;14.80;99.90
24410;DHT22;12543;53.364;-1.504;2022-10-23T16:26:50;14.80;99.90
24410;DHT22;12543;53.364;-1.504;2022-10-23T16:29:21;14.80;99.90
24410;DHT22;12543;53.364;-1.504;2022-10-23T16:32:00;14.80;99.90
24410;DHT22;12543;53.364;-1.504;2022-10-23T16:34:29;14.80;99.90
24410;DHT22;12543;53.364;-1.504;2022-10-23T16:36:57;14.70;99.90
24410;DHT22;12543;53.364;-1.504;2022-10-23T16:39:50;14.70;99.90
24410;DHT22;12543;53.364;-1.504;2022-10-23T16:42:40;14.70;99.90
24410;DHT22;12543;53.364;-1.504;2022-10-23T16:45:12;14.70;99.90
24410;DHT22;12543;53.364;-1.504;2022-10-23T16:47:45;14.70;99.90
24410;DHT22;12543;53.364;-1.504;2022-10-23T16:50:12;14.70;99.90
24410;DHT22;12543;53.364;-1.504;2022-10-23T16:52:39;14.70;99.90
24410;DHT22;12543;53.364;-1.504;2022-10-23T16:55:07;14.70;99.90
24410;DHT22;12543;53.364;-1.504;2022-10-23T16:57:48;14.70;99.90
24410;DHT22;12543;53.364;-1.504;2022-10-23T17:00:15;14.70;99.90
24410;DHT22;12543;53.364;-1.504;2022-10-23T17:02:44;14.70;99.90
24410;DHT22;12543;53.364;-1.504;2022-10-23T17:05:12;14.70;99.90
24410;DHT22;12543;53.364;-1.504;2022-10-23T17:07:39;14.70;99.90
24410;DHT22;12543;53.364;-1.504;2022-10-23T17:10:10;14.70;99.90
24410;DHT22;12543;53.364;-1.504;2022-10-23T17:12:37;14.70;99.90
24410;DHT22;12543;53.364;-1.504;2022-10-23T17:15:10;14.70;99.90
24410;DHT22;12543;53.364;-1.504;2022-10-23T17:17:45;14.70;99.90
24410;DHT22;12543;53.364;-1.504;2022-10-23T17:20:24;14.70;99.90
24410;DHT22;12543;53.364;-1.504;2022-10-23T17:22:51;14.70;99.90
24410;DHT22;12543;53.364;-1.504;2022-10-23T17:25:39;14.70;99.90
24410;DHT22;12543;53.364;-1.504;2022-10-23T17:28:16;14.70;99.90
24410;DHT22;12543;53.364;-1.504;2022-10-23T17:30:43;14.70;99.90
24410;DHT22;12543;53.364;-1.504;2022-10-23T17:33:10;14.70;99.90
24410;DHT22;12543;53.364;-1.504;2022-10-23T17:35:39;14.70;99.90
24410;DHT22;12543;53.364;-1.504;2022-10-23T17:38:19;14.70;99.90
24410;DHT22;12543;53.364;-1.504;2022-10-23T17:40:51;14.60;99.90
24410;DHT22;12543;53.364;-1.504;2022-10-23T17:43:24;14.60;99.90
24410;DHT22;12543;53.364;-1.504;2022-10-23T17:45:51;14.60;99.90
24410;DHT22;12543;53.364;-1.504;2022-10-23T17:48:18;14.60;99.90
24410;DHT22;12543;53.364;-1.504;2022-10-23T17:50:46;14.60;99.90
24410;DHT22;12543;53.364;-1.504;2022-10-23T17:53:18;14.60;99.90
24410;DHT22;12543;53.364;-1.504;2022-10-23T17:55:45;14.60;99.90
24410;DHT22;12543;53.364;-1.504;2022-10-23T17:58:12;14.60;99.90
24410;DHT22;12543;53.364;-1.504;2022-10-23T18:00:39;14.60;99.90
24410;DHT22;12543;53.364;-1.504;2022-10-23T18:03:06;14.60;99.90
24410;DHT22;12543;53.364;-1.504;2022-10-23T18:05:35;14.60;99.90
24410;DHT22;12543;53.364;-1.504;2022-10-23T18:08:02;14.60;99.90
24410;DHT22;12543;53.364;-1.504;2022-10-23T18:10:29;14.50;99.90
24410;DHT22;12543;53.364;-1.504;2022-10-23T18:12:55;14.50;99.90
24410;DHT22;12543;53.364;-1.504;2022-10-23T18:15:22;14.50;99.90
24410;DHT22;12543;53.364;-1.504;2022-10-23T18:17:50;14.50;99.90
24410;DHT22;12543;53.364;-1.504;2022-10-23T18:20:16;14.50;99.90
24410;DHT22;12543;53.364;-1.504;2022-10-23T18:22:43;14.50;99.90
24410;DHT22;12543;53.364;-1.504;2022-10-23T18:25:11;14.50;99.90
24410;DHT22;12543;53.364;-1.504;2022-10-23T18:27:37;14.50;99.90
24410;DHT22;12543;53.364;-1.504;2022-10-23T18:30:07;14.50;99.90
24410;DHT22;12543;53.364;-1.504;2022-10-23T18:32:34;14.40;99.90
24410;DHT22;12543;53.364;-1.504;2022-10-23T18:35:01;14.40;99.90
24410;DHT22;12543;53.364;-1.504;2022-10-23T18:37:28;14.30;99.90
24410;DHT22;12543;53.364;-1.504;2022-10-23T18:39:59;14.30;99.90
24410;DHT22;12543;53.364;-1.504;2022-10-23T18:42:26;14.30;99.90
24410;DHT22;12543;53.364;-1.504;2022-10-23T18:44:53;14.30;99.90
24410;DHT22;12543;53.364;-1.504;2022-10-23T18:47:19;14.20;99.90
24410;DHT22;12543;53.364;-1.504;2022-10-23T18:49:46;14.20;99.90
24410;DHT22;12543;53.364;-1.504;2022-10-23T18:52:13;14.20;99.90
24410;DHT22;12543;53.364;-1.504;2022-10-23T18:54:40;14.20;99.90
24410;DHT22;12543;53.364;-1.504;2022-10-23T18:57:07;14.20;99.90
24410;DHT22;12543;53.364;-1.504;2022-10-23T18:59:34;14.20;99.90
24410;DHT22;12543;53.364;-1.504;2022-10-23T19:02:00;14.20;99.90
24410;DHT22;12543;53.364;-1.504;2022-10-23T19:04:28;14.20;99.90
24410;DHT22;12543;53.364;-1.504;2022-10-23T19:06:59;14.20;99.90
24410;DHT22;12543;53.364;-1.504;2022-10-23T19:09:26;14.20;99.90
24410;DHT22;12543;53.364;-1.504;2022-10-23T19:11:53;14.20;99.90
24410;DHT22;12543;53.364;-1.504;2022-10-23T19:14:20;14.20;99.90
24410;DHT22;12543;53.364;-1.504;2022-10-23T19:16:57;14.20;99.90
24410;DHT22;12543;53.364;-1.504;2022-10-23T19:19:27;14.20;99.90
24410;DHT22;12543;53.364;-1.504;2022-10-23T19:21:56;14.20;99.90